createdAt,value
2022-11-17T00:00:44.195Z,95457.97
2022-11-17T00:02:47.147Z,95462.28
2022-11-17T00:04:49.801Z,95465.16
2022-11-17T00:06:52.735Z,95456.06
2022-11-17T00:08:55.399Z,95459.16
2022-11-17T00:11:01.617Z,95465.69
2022-11-17T00:13:21.963Z,95463.44
2022-11-17T00:15:23.598Z,95468.09
2022-11-17T00:17:26.014Z,95464.22
2022-11-17T00:19:46.445Z,95469.41
2022-11-17T00:21:48.061Z,95469.59
2022-11-17T00:23:51.025Z,95480.19
2022-11-17T00:25:53.725Z,95477.41
2022-11-17T00:27:57.652Z,95463.56
2022-11-17T00:30:00.347Z,95460.16
2022-11-17T00:32:23.541Z,95451.19
2022-11-17T00:34:25.188Z,95441.63
2022-11-17T00:36:27.666Z,95431.34
2022-11-17T00:38:30.257Z,95431.03
2022-11-17T00:40:32.848Z,95429.19
2022-11-17T00:42:35.460Z,95422.97
2022-11-17T00:44:39.395Z,95418.31
2022-11-17T00:46:42.461Z,95423.19
2022-11-17T00:48:45.016Z,95418.53
2022-11-17T00:50:47.646Z,95406.16
2022-11-17T00:52:50.265Z,95396.59
2022-11-17T00:54:52.843Z,95392.25
2022-11-17T00:56:55.706Z,95399.94
2022-11-17T00:58:58.439Z,95402.25
2022-11-17T01:01:02.537Z,95409.22
2022-11-17T01:03:05.224Z,95407.34
2022-11-17T01:05:08.364Z,95401.31
2022-11-17T01:07:10.949Z,95399.44
2022-11-17T01:09:15.661Z,95391.78
2022-11-17T01:11:20.269Z,95389.91
2022-11-17T01:13:22.839Z,95373.91
2022-11-17T01:15:25.394Z,95370.34
2022-11-17T01:17:29.341Z,95372.03
2022-11-17T01:19:31.935Z,95367.47
2022-11-17T01:21:34.721Z,95367.75
2022-11-17T01:23:38.361Z,95371.84
2022-11-17T01:25:40.976Z,95375.47
2022-11-17T01:27:43.547Z,95370.38
2022-11-17T01:29:46.217Z,95360.81
2022-11-17T01:31:52.372Z,95367.38
2022-11-17T01:33:56.451Z,95365.03
2022-11-17T01:36:02.560Z,95362.44
2022-11-17T01:38:05.186Z,95367.38
2022-11-17T01:40:10.919Z,95359.66
2022-11-17T01:42:16.635Z,95361.63
2022-11-17T01:44:55.092Z,95356.66
2022-11-17T01:47:00.885Z,95358.63
2022-11-17T01:49:12.464Z,95359.16
2022-11-17T01:51:17.410Z,95344.81
2022-11-17T01:53:22.291Z,95337.06
2022-11-17T01:55:28.781Z,95336.34
2022-11-17T01:57:36.776Z,95324.03
2022-11-17T01:59:43.223Z,95318.72
2022-11-17T02:01:56.544Z,95308.09
2022-11-17T02:03:59.544Z,95298.94
2022-11-17T02:06:07.338Z,95295.47
2022-11-17T02:08:12.014Z,95289.66
2022-11-17T02:10:17.400Z,95287.03
2022-11-17T02:12:21.455Z,95276.91
2022-11-17T02:14:24.052Z,95268.59
2022-11-17T02:16:26.680Z,95253.81
2022-11-17T02:18:29.341Z,95246.72
2022-11-17T02:20:44.435Z,95250.88
2022-11-17T02:23:19.590Z,95242.00
2022-11-17T02:25:46.023Z,95234.25
2022-11-17T02:28:00.304Z,95227.91
2022-11-17T02:30:06.131Z,95224.81
2022-11-17T02:32:12.338Z,95226.16
2022-11-17T02:34:25.270Z,95230.69
2022-11-17T02:36:33.885Z,95230.19
2022-11-17T02:38:45.111Z,95226.09
2022-11-17T02:40:52.891Z,95221.00
2022-11-17T02:43:17.352Z,95198.88
2022-11-17T02:45:25.286Z,95181.34
2022-11-17T02:47:30.402Z,95178.75
2022-11-17T02:49:37.259Z,95179.78
2022-11-17T02:51:41.882Z,95192.28
2022-11-17T02:53:45.035Z,95201.47
2022-11-17T02:55:51.601Z,95204.03
2022-11-17T02:57:54.206Z,95190.56
2022-11-17T03:00:00.000Z,95197.44
2022-11-17T03:02:27.251Z,95206.81
2022-11-17T03:04:45.817Z,95219.41
2022-11-17T03:07:00.637Z,95231.44
2022-11-17T03:09:12.743Z,95244.34
2022-11-17T03:11:15.488Z,95259.09
2022-11-17T03:13:22.107Z,95259.88
2022-11-17T03:15:32.976Z,95262.53
2022-11-17T03:17:44.948Z,95257.13
2022-11-17T03:19:53.550Z,95253.59
2022-11-17T03:22:01.775Z,95240.88
2022-11-17T03:24:08.841Z,95243.47
2022-11-17T03:26:17.497Z,95248.69
2022-11-17T03:28:24.086Z,95243.88
2022-11-17T03:30:33.279Z,95232.13
2022-11-17T03:32:42.976Z,95247.75
2022-11-17T03:34:50.439Z,95244.44
2022-11-17T03:36:56.727Z,95242.66
2022-11-17T03:39:04.634Z,95251.50
2022-11-17T03:41:10.686Z,95248.56
2022-11-17T03:43:16.714Z,95245.31
2022-11-17T03:45:23.265Z,95240.88
2022-11-17T03:47:29.787Z,95236.19
2022-11-17T03:49:39.659Z,95226.91
2022-11-17T03:51:42.429Z,95228.38
2022-11-17T03:53:46.904Z,95225.66
2022-11-17T03:55:56.745Z,95243.03
2022-11-17T03:58:04.421Z,95239.81
2022-11-17T04:00:09.352Z,95237.16
2022-11-17T04:02:15.967Z,95230.81
2022-11-17T04:04:22.159Z,95240.16
2022-11-17T04:06:24.773Z,95223.78
2022-11-17T04:08:30.510Z,95219.84
2022-11-17T04:10:53.226Z,95221.59
2022-11-17T04:13:13.855Z,95222.88
2022-11-17T04:15:33.950Z,95203.41
2022-11-17T04:17:36.535Z,95210.47
2022-11-17T04:19:42.942Z,95207.44
2022-11-17T04:21:46.097Z,95194.22
2022-11-17T04:23:48.654Z,95181.50
2022-11-17T04:26:10.773Z,95187.56
2022-11-17T04:28:31.086Z,95184.94
2022-11-17T04:30:33.768Z,95188.91
2022-11-17T04:32:36.351Z,95184.13
2022-11-17T04:34:42.511Z,95183.81
2022-11-17T04:36:45.098Z,95177.75
2022-11-17T04:38:49.084Z,95176.56
2022-11-17T04:41:05.620Z,95173.44
2022-11-17T04:43:08.495Z,95184.72
2022-11-17T04:45:11.267Z,95189.53
2022-11-17T04:47:13.882Z,95170.97
2022-11-17T04:49:18.081Z,95170.44
2022-11-17T04:51:23.233Z,95170.53
2022-11-17T04:53:25.922Z,95169.75
2022-11-17T04:55:28.536Z,95162.06
2022-11-17T04:57:31.106Z,95169.81
2022-11-17T04:59:33.735Z,95171.25
2022-11-17T05:01:36.782Z,95168.09
2022-11-17T05:03:44.068Z,95174.47
2022-11-17T05:05:47.027Z,95160.28
2022-11-17T05:07:50.960Z,95153.53
2022-11-17T05:09:53.543Z,95154.56
2022-11-17T05:12:13.595Z,95153.00
2022-11-17T05:14:18.076Z,95154.34
2022-11-17T05:16:40.214Z,95168.44
2022-11-17T05:18:44.394Z,95173.97
2022-11-17T05:20:47.002Z,95168.97
2022-11-17T05:23:08.671Z,95181.47
2022-11-17T05:25:11.526Z,95182.72
2022-11-17T05:27:14.138Z,95187.50
2022-11-17T05:29:19.034Z,95190.28
2022-11-17T05:31:21.648Z,95201.41
2022-11-17T05:33:24.256Z,95204.63
2022-11-17T05:35:26.831Z,95204.47
2022-11-17T05:37:29.509Z,95195.19
2022-11-17T05:39:33.536Z,95199.38
2022-11-17T05:41:37.699Z,95194.78
2022-11-17T05:43:40.347Z,95186.84
2022-11-17T05:45:43.039Z,95187.13
2022-11-17T05:47:45.706Z,95187.00
2022-11-17T05:49:48.290Z,95186.47
2022-11-17T05:51:53.019Z,95197.66
2022-11-17T05:53:55.787Z,95198.00
2022-11-17T05:56:14.816Z,95198.91
2022-11-17T05:58:21.525Z,95205.56
2022-11-17T06:00:24.194Z,95201.84
2022-11-17T06:02:31.109Z,95205.81
2022-11-17T06:04:33.998Z,95196.19
2022-11-17T06:06:38.561Z,95191.06
2022-11-17T06:08:41.256Z,95188.09
2022-11-17T06:10:44.158Z,95183.22
2022-11-17T06:12:48.449Z,95190.22
2022-11-17T06:14:51.139Z,95201.69
2022-11-17T06:16:58.677Z,95207.94
2022-11-17T06:19:06.608Z,95206.50
2022-11-17T06:21:13.860Z,95209.19
2022-11-17T06:23:18.625Z,95195.88
2022-11-17T06:25:21.779Z,95201.19
2022-11-17T06:27:25.633Z,95198.88
2022-11-17T06:29:30.511Z,95197.34
2022-11-17T06:31:33.443Z,95197.34
2022-11-17T06:33:37.793Z,95197.34
2022-11-17T06:35:41.712Z,95202.75
2022-11-17T06:37:44.504Z,95207.03
2022-11-17T06:39:47.134Z,95209.75
2022-11-17T06:41:49.753Z,95211.63
2022-11-17T06:43:52.507Z,95216.09
2022-11-17T06:45:56.521Z,95221.31
2022-11-17T06:47:59.077Z,95227.47
2022-11-17T06:50:01.715Z,95228.28
2022-11-17T06:52:04.372Z,95233.47
2022-11-17T06:54:09.665Z,95234.94
2022-11-17T06:56:12.347Z,95232.56
2022-11-17T06:58:14.934Z,95228.78
2022-11-17T07:00:18.631Z,95235.66
2022-11-17T07:02:22.571Z,95231.06
2022-11-17T07:04:25.210Z,95242.44
2022-11-17T07:06:27.806Z,95251.91
2022-11-17T07:08:32.665Z,95259.19
2022-11-17T07:10:35.923Z,95252.00
2022-11-17T07:12:38.548Z,95246.44
2022-11-17T07:14:43.196Z,95242.41
2022-11-17T07:16:45.798Z,95241.34
2022-11-17T07:18:49.795Z,95236.97
2022-11-17T07:20:52.385Z,95233.66
2022-11-17T07:22:59.831Z,95238.41
2022-11-17T07:25:02.431Z,95236.50
2022-11-17T07:27:06.466Z,95241.56
2022-11-17T07:29:09.075Z,95259.66
2022-11-17T07:31:11.717Z,95251.59
2022-11-17T07:33:14.577Z,95262.25
2022-11-17T07:35:19.477Z,95259.66
2022-11-17T07:37:22.067Z,95262.97
2022-11-17T07:39:24.622Z,95251.19
2022-11-17T07:41:27.279Z,95244.22
2022-11-17T07:43:30.227Z,95247.31
2022-11-17T07:45:32.899Z,95226.00
2022-11-17T07:47:35.586Z,95235.72
2022-11-17T07:49:38.280Z,95233.66
2022-11-17T07:51:42.276Z,95228.09
2022-11-17T07:53:44.881Z,95237.69
2022-11-17T07:55:47.497Z,95231.38
2022-11-17T07:57:56.439Z,95230.25
2022-11-17T07:59:59.030Z,95239.19
2022-11-17T08:02:01.816Z,95248.16
2022-11-17T08:04:04.704Z,95256.56
2022-11-17T08:06:09.305Z,95254.97
2022-11-17T08:08:14.124Z,95256.31
2022-11-17T08:10:16.925Z,95242.28
2022-11-17T08:12:19.509Z,95262.34
2022-11-17T08:14:22.093Z,95268.38
2022-11-17T08:16:27.266Z,95267.75
2022-11-17T08:18:30.732Z,95269.56
2022-11-17T08:20:33.824Z,95260.41
2022-11-17T08:22:36.478Z,95251.34
2022-11-17T08:24:40.499Z,95262.88
2022-11-17T08:26:43.073Z,95272.81
2022-11-17T08:28:45.680Z,95268.59
2022-11-17T08:30:48.291Z,95265.13
2022-11-17T08:32:52.894Z,95266.75
2022-11-17T08:34:55.867Z,95266.09
2022-11-17T08:36:58.459Z,95266.13
2022-11-17T08:39:01.091Z,95249.91
2022-11-17T08:41:06.634Z,95259.44
2022-11-17T08:43:09.258Z,95258.34
2022-11-17T08:45:12.237Z,95272.31
2022-11-17T08:47:14.919Z,95271.47
2022-11-17T08:49:17.543Z,95272.13
2022-11-17T08:51:20.164Z,95276.81
2022-11-17T08:53:24.000Z,95282.13
2022-11-17T08:55:26.720Z,95288.06
2022-11-17T08:57:31.920Z,95277.44
2022-11-17T08:59:34.530Z,95273.22
2022-11-17T09:01:37.270Z,95286.84
2022-11-17T09:03:40.006Z,95297.16
2022-11-17T09:05:45.038Z,95294.94
2022-11-17T09:07:47.732Z,95293.78
2022-11-17T09:09:50.440Z,95286.22
2022-11-17T09:11:53.011Z,95290.84
2022-11-17T09:13:57.018Z,95281.28
2022-11-17T09:16:02.003Z,95290.34
2022-11-17T09:18:04.670Z,95288.59
2022-11-17T09:20:08.172Z,95301.75
2022-11-17T09:22:11.696Z,95304.28
2022-11-17T09:24:14.280Z,95296.41
2022-11-17T09:26:17.499Z,95336.91
2022-11-17T09:28:20.169Z,95316.16
2022-11-17T09:30:24.617Z,95340.00
2022-11-17T09:32:27.221Z,95325.91
2022-11-17T09:34:30.425Z,95326.78
2022-11-17T09:36:33.127Z,95338.56
2022-11-17T09:38:36.193Z,95338.53
2022-11-17T09:40:41.119Z,95346.41
2022-11-17T09:42:43.852Z,95338.84
2022-11-17T09:44:52.550Z,95337.41
2022-11-17T09:47:02.467Z,95318.47
2022-11-17T09:49:12.801Z,95336.06
2022-11-17T09:51:19.877Z,95325.91
2022-11-17T09:53:27.531Z,95329.31
2022-11-17T09:55:34.561Z,95329.47
2022-11-17T09:57:41.812Z,95323.59
2022-11-17T09:59:44.580Z,95322.31
2022-11-17T10:01:47.246Z,95328.63
2022-11-17T10:03:53.512Z,95332.19
2022-11-17T10:05:57.023Z,95329.63
2022-11-17T10:08:03.576Z,95340.56
2022-11-17T10:10:12.979Z,95338.19
2022-11-17T10:12:19.177Z,95333.34
2022-11-17T10:14:22.966Z,95342.19
2022-11-17T10:16:25.690Z,95341.28
2022-11-17T10:18:35.045Z,95336.31
2022-11-17T10:20:42.038Z,95331.69
2022-11-17T10:22:46.361Z,95332.66
2022-11-17T10:24:52.077Z,95345.13
2022-11-17T10:26:54.943Z,95331.09
2022-11-17T10:29:09.417Z,95331.28
2022-11-17T10:31:14.313Z,95327.69
2022-11-17T10:33:18.097Z,95328.53
2022-11-17T10:35:22.420Z,95316.72
2022-11-17T10:37:31.721Z,95329.53
2022-11-17T10:39:37.007Z,95333.56
2022-11-17T10:41:43.851Z,95322.63
2022-11-17T10:43:57.742Z,95322.53
2022-11-17T10:46:05.038Z,95346.72
2022-11-17T10:48:21.365Z,95312.88
2022-11-17T10:50:26.141Z,95321.41
2022-11-17T10:52:30.098Z,95323.09
2022-11-17T10:54:32.818Z,95325.63
2022-11-17T10:56:41.594Z,95319.44
2022-11-17T10:59:00.611Z,95336.25
2022-11-17T11:01:04.959Z,95318.66
2022-11-17T11:03:17.535Z,95317.56
2022-11-17T11:05:21.339Z,95309.34
2022-11-17T11:07:25.143Z,95311.88
2022-11-17T11:09:30.603Z,95318.91
2022-11-17T11:11:44.431Z,95311.56
2022-11-17T11:13:53.673Z,95325.72
2022-11-17T11:15:56.315Z,95310.69
2022-11-17T11:17:59.111Z,95307.41
2022-11-17T11:20:01.789Z,95312.41
2022-11-17T11:22:21.813Z,95310.97
2022-11-17T11:24:30.851Z,95324.56
2022-11-17T11:26:47.080Z,95311.91
2022-11-17T11:29:04.398Z,95299.03
2022-11-17T11:31:16.707Z,95304.03
2022-11-17T11:33:29.623Z,95300.00
2022-11-17T11:35:55.131Z,95301.53
2022-11-17T11:38:05.469Z,95293.72
2022-11-17T11:40:16.796Z,95299.66
2022-11-17T11:42:45.080Z,95288.16
2022-11-17T11:45:05.602Z,95309.91
2022-11-17T11:47:18.809Z,95297.09
2022-11-17T11:49:32.956Z,95307.84
2022-11-17T11:51:38.995Z,95296.34
2022-11-17T11:53:49.727Z,95294.66
2022-11-17T11:56:01.324Z,95312.38
2022-11-17T11:58:13.645Z,95298.22
2022-11-17T12:00:18.519Z,95318.19
2022-11-17T12:02:30.079Z,95302.88
2022-11-17T12:04:44.281Z,95306.06
2022-11-17T12:06:54.385Z,95297.63
2022-11-17T12:09:07.286Z,95289.44
2022-11-17T12:11:28.786Z,95295.00
2022-11-17T12:13:32.928Z,95297.16
2022-11-17T12:15:37.700Z,95294.03
2022-11-17T12:17:59.047Z,95295.59
2022-11-17T12:20:09.212Z,95300.34
2022-11-17T12:22:18.158Z,95302.78
2022-11-17T12:24:32.963Z,95305.50
2022-11-17T12:26:36.418Z,95288.97
2022-11-17T12:28:41.792Z,95308.13
2022-11-17T12:30:56.362Z,95295.75
2022-11-17T12:32:59.812Z,95301.19
2022-11-17T12:35:24.118Z,95304.19
2022-11-17T12:37:27.443Z,95299.03
2022-11-17T12:39:53.527Z,95307.72
2022-11-17T12:42:06.560Z,95303.47
2022-11-17T12:44:43.499Z,95305.34
2022-11-17T12:46:48.222Z,95315.66
2022-11-17T12:48:59.254Z,95310.66
2022-11-17T12:51:07.692Z,95312.22
2022-11-17T12:53:34.069Z,95302.50
2022-11-17T12:55:51.534Z,95311.03
2022-11-17T12:58:10.351Z,95302.84
2022-11-17T13:00:18.984Z,95301.91
2022-11-17T13:02:33.980Z,95308.84
2022-11-17T13:04:49.088Z,95292.28
2022-11-17T13:07:03.101Z,95301.84
2022-11-17T13:09:07.685Z,95307.97
2022-11-17T13:11:17.571Z,95293.78
2022-11-17T13:13:21.561Z,95291.53
2022-11-17T13:15:24.415Z,95303.69
2022-11-17T13:17:34.528Z,95296.53
2022-11-17T13:19:39.076Z,95294.38
2022-11-17T13:21:41.688Z,95297.13
2022-11-17T13:23:45.533Z,95297.13
2022-11-17T13:25:48.383Z,95301.13
2022-11-17T13:27:57.183Z,95299.78
2022-11-17T13:30:15.874Z,95302.56
2022-11-17T13:32:21.255Z,95303.69
2022-11-17T13:34:25.229Z,95302.00
2022-11-17T13:36:27.852Z,95305.03
2022-11-17T13:38:30.461Z,95294.63
2022-11-17T13:40:37.908Z,95304.38
2022-11-17T13:42:40.834Z,95301.19
2022-11-17T13:44:43.700Z,95297.59
2022-11-17T13:46:46.283Z,95297.72
2022-11-17T13:48:50.232Z,95301.69
2022-11-17T13:50:54.322Z,95296.06
2022-11-17T13:52:59.141Z,95291.13
2022-11-17T13:55:02.081Z,95300.84
2022-11-17T13:57:08.433Z,95299.22
2022-11-17T13:59:24.390Z,95290.44
2022-11-17T14:01:29.577Z,95287.25
2022-11-17T14:03:39.919Z,95290.66
2022-11-17T14:05:57.694Z,95292.22
2022-11-17T14:08:13.235Z,95293.53
2022-11-17T14:10:27.653Z,95287.56
2022-11-17T14:12:30.341Z,95290.91
2022-11-17T14:14:37.337Z,95295.63
2022-11-17T14:16:41.386Z,95293.91
2022-11-17T14:18:44.027Z,95285.03
2022-11-17T14:20:49.225Z,95289.97
2022-11-17T14:23:05.915Z,95293.72
2022-11-17T14:25:08.851Z,95291.03
2022-11-17T14:27:14.821Z,95285.34
2022-11-17T14:29:17.467Z,95283.56
2022-11-17T14:31:20.805Z,95286.19
2022-11-17T14:33:24.045Z,95274.53
2022-11-17T14:35:26.634Z,95267.88
2022-11-17T14:37:32.405Z,95270.97
2022-11-17T14:39:37.344Z,95279.78
2022-11-17T14:41:40.924Z,95275.38
2022-11-17T14:43:43.851Z,95278.81
2022-11-17T14:45:46.516Z,95279.00
2022-11-17T14:47:49.627Z,95279.19
2022-11-17T14:49:52.370Z,95277.69
2022-11-17T14:51:57.159Z,95282.22
2022-11-17T14:53:59.793Z,95272.13
2022-11-17T14:56:08.880Z,95278.31
2022-11-17T14:58:11.578Z,95265.84
2022-11-17T15:00:20.659Z,95285.59
2022-11-17T15:02:23.804Z,95280.84
2022-11-17T15:04:49.579Z,95274.09
2022-11-17T15:06:48.989Z,95276.91
2022-11-17T15:08:54.495Z,95282.53
2022-11-17T15:10:57.094Z,95272.56
2022-11-17T15:13:01.098Z,95271.84
2022-11-17T15:15:04.483Z,95264.25
2022-11-17T15:17:11.209Z,95275.03
2022-11-17T15:19:15.572Z,95276.00
2022-11-17T15:21:18.205Z,95281.50
2022-11-17T15:23:20.782Z,95280.91
2022-11-17T15:25:23.401Z,95276.72
2022-11-17T15:27:26.037Z,95282.44
2022-11-17T15:29:30.016Z,95277.44
2022-11-17T15:31:32.643Z,95281.25
2022-11-17T15:33:35.244Z,95276.13
2022-11-17T15:35:37.817Z,95270.41
2022-11-17T15:37:40.520Z,95270.66
2022-11-17T15:39:43.095Z,95263.19
2022-11-17T15:41:45.937Z,95268.66
2022-11-17T15:43:48.540Z,95275.75
2022-11-17T15:45:52.463Z,95268.97
2022-11-17T15:47:55.058Z,95270.88
2022-11-17T15:49:58.661Z,95264.31
2022-11-17T15:52:01.325Z,95263.72
2022-11-17T15:54:04.005Z,95259.56
2022-11-17T15:56:08.537Z,95258.84
2022-11-17T15:58:11.146Z,95250.28
2022-11-17T16:00:15.032Z,95253.38
2022-11-17T16:02:19.051Z,95255.25
2022-11-17T16:04:21.823Z,95257.28
2022-11-17T16:06:24.790Z,95263.44
2022-11-17T16:08:27.510Z,95250.50
2022-11-17T16:10:30.093Z,95251.69
2022-11-17T16:12:32.814Z,95253.44
2022-11-17T16:14:35.469Z,95255.34
2022-11-17T16:16:40.178Z,95255.22
2022-11-17T16:18:44.848Z,95255.47
2022-11-17T16:20:47.686Z,95251.44
2022-11-17T16:22:50.354Z,95255.81
2022-11-17T16:24:53.001Z,95253.31
2022-11-17T16:26:55.589Z,95249.16
2022-11-17T16:28:59.356Z,95251.88
2022-11-17T16:31:12.947Z,95247.72
2022-11-17T16:33:16.600Z,95248.78
2022-11-17T16:35:20.629Z,95252.22
2022-11-17T16:37:23.255Z,95245.00
2022-11-17T16:39:25.829Z,95254.25
2022-11-17T16:41:30.218Z,95250.00
2022-11-17T16:43:32.812Z,95251.63
2022-11-17T16:45:42.735Z,95254.25
2022-11-17T16:47:45.333Z,95254.25
2022-11-17T16:49:51.633Z,95258.75
2022-11-17T16:51:55.877Z,95255.31
2022-11-17T16:54:00.154Z,95259.72
2022-11-17T16:56:05.011Z,95257.34
2022-11-17T16:58:08.582Z,95261.72
2022-11-17T17:00:14.237Z,95261.09
2022-11-17T17:02:16.900Z,95255.88
2022-11-17T17:04:19.513Z,95252.56
2022-11-17T17:06:22.128Z,95258.59
2022-11-17T17:08:27.600Z,95260.38
2022-11-17T17:10:30.258Z,95270.94
2022-11-17T17:12:32.856Z,95258.72
2022-11-17T17:14:35.547Z,95265.72
2022-11-17T17:16:38.961Z,95270.09
2022-11-17T17:18:42.232Z,95272.72
2022-11-17T17:20:51.191Z,95273.66
2022-11-17T17:22:56.870Z,95277.22
2022-11-17T17:25:04.470Z,95277.78
2022-11-17T17:27:07.219Z,95284.38
2022-11-17T17:29:11.724Z,95286.38
2022-11-17T17:31:20.962Z,95287.56
2022-11-17T17:33:24.241Z,95286.97
2022-11-17T17:35:26.844Z,95287.88
2022-11-17T17:37:32.422Z,95284.56
2022-11-17T17:39:35.123Z,95288.00
2022-11-17T17:41:41.187Z,95290.72
2022-11-17T17:43:45.517Z,95287.28
2022-11-17T17:45:48.143Z,95293.34
2022-11-17T17:47:50.715Z,95295.59
2022-11-17T17:49:53.341Z,95286.25
2022-11-17T17:51:55.899Z,95288.84
2022-11-17T17:54:01.865Z,95288.84
2022-11-17T17:56:07.138Z,95282.78
2022-11-17T17:58:11.089Z,95284.34
2022-11-17T18:00:14.753Z,95282.34
2022-11-17T18:02:17.352Z,95295.59
2022-11-17T18:04:20.095Z,95296.56
2022-11-17T18:06:23.426Z,95300.81
2022-11-17T18:08:26.036Z,95304.03
2022-11-17T18:10:28.673Z,95292.78
2022-11-17T18:12:31.316Z,95291.59
2022-11-17T18:14:35.300Z,95295.91
2022-11-17T18:16:38.458Z,95295.06
2022-11-17T18:18:41.509Z,95289.72
2022-11-17T18:20:44.111Z,95298.28
2022-11-17T18:22:49.630Z,95292.94
2022-11-17T18:24:55.939Z,95297.31
2022-11-17T18:27:00.761Z,95299.28
2022-11-17T18:29:06.121Z,95305.09
2022-11-17T18:31:10.473Z,95302.38
2022-11-17T18:33:13.512Z,95303.59
2022-11-17T18:35:16.162Z,95309.78
2022-11-17T18:37:18.790Z,95309.63
2022-11-17T18:39:22.017Z,95311.84
2022-11-17T18:41:24.786Z,95326.50
2022-11-17T18:43:30.573Z,95313.44
2022-11-17T18:45:37.387Z,95318.47
2022-11-17T18:47:41.303Z,95324.69
2022-11-17T18:49:43.961Z,95325.13
2022-11-17T18:51:46.544Z,95324.69
2022-11-17T18:53:49.748Z,95340.72
2022-11-17T18:55:53.491Z,95351.28
2022-11-17T18:57:56.096Z,95372.81
2022-11-17T18:59:58.662Z,95356.16
2022-11-17T19:02:01.559Z,95357.94
2022-11-17T19:04:06.313Z,95383.09
2022-11-17T19:06:10.419Z,95382.09
2022-11-17T19:08:13.696Z,95383.69
2022-11-17T19:10:17.380Z,95384.66
2022-11-17T19:12:20.002Z,95386.50
2022-11-17T19:14:22.658Z,95400.94
2022-11-17T19:16:27.137Z,95398.78
2022-11-17T19:18:29.849Z,95400.66
2022-11-17T19:20:33.870Z,95405.25
2022-11-17T19:22:36.525Z,95403.53
2022-11-17T19:24:40.786Z,95410.38
2022-11-17T19:26:43.472Z,95407.28
2022-11-17T19:28:46.353Z,95414.38
2022-11-17T19:30:48.985Z,95413.84
2022-11-17T19:32:51.665Z,95418.34
2022-11-17T19:34:56.544Z,95422.94
2022-11-17T19:37:05.675Z,95425.88
2022-11-17T19:39:08.447Z,95412.31
2022-11-17T19:41:14.421Z,95411.69
2022-11-17T19:43:17.778Z,95411.69
2022-11-17T19:45:20.965Z,95411.81
2022-11-17T19:47:26.300Z,95412.03
2022-11-17T19:49:29.104Z,95423.50
2022-11-17T19:51:33.512Z,95419.34
2022-11-17T19:53:37.872Z,95417.44
2022-11-17T19:55:40.509Z,95417.03
2022-11-17T19:57:43.178Z,95427.56
2022-11-17T19:59:46.104Z,95424.31
2022-11-17T20:01:48.762Z,95428.50
2022-11-17T20:03:52.243Z,95436.34
2022-11-17T20:06:00.622Z,95440.81
2022-11-17T20:08:03.308Z,95443.19
2022-11-17T20:10:07.953Z,95434.97
2022-11-17T20:12:10.905Z,95434.22
2022-11-17T20:14:14.428Z,95432.47
2022-11-17T20:16:19.514Z,95433.22
2022-11-17T20:18:22.088Z,95430.59
2022-11-17T20:20:24.722Z,95436.00
2022-11-17T20:22:27.316Z,95433.81
2022-11-17T20:24:29.911Z,95441.53
2022-11-17T20:26:36.204Z,95445.28
2022-11-17T20:28:39.625Z,95439.34
2022-11-17T20:30:43.156Z,95436.00
2022-11-17T20:32:45.915Z,95435.06
2022-11-17T20:34:48.523Z,95443.63
2022-11-17T20:36:51.457Z,95449.34
2022-11-17T20:38:55.936Z,95450.69
2022-11-17T20:40:58.977Z,95449.34
2022-11-17T20:43:02.960Z,95464.19
2022-11-17T20:45:05.934Z,95458.56
2022-11-17T20:47:08.614Z,95459.50
2022-11-17T20:49:11.333Z,95448.97
2022-11-17T20:51:16.097Z,95446.38
2022-11-17T20:53:18.718Z,95453.34
2022-11-17T20:55:21.323Z,95454.09
2022-11-17T20:57:23.921Z,95457.53
2022-11-17T20:59:27.870Z,95462.75
2022-11-17T21:01:30.649Z,95471.47
2022-11-17T21:03:33.305Z,95476.81
2022-11-17T21:05:35.882Z,95483.06
2022-11-17T21:07:38.788Z,95485.66
2022-11-17T21:09:41.467Z,95485.94
2022-11-17T21:11:59.360Z,95479.09
2022-11-17T21:14:02.055Z,95478.56
2022-11-17T21:16:09.078Z,95470.84
2022-11-17T21:18:27.185Z,95472.59
2022-11-17T21:20:29.768Z,95471.34
2022-11-17T21:22:32.466Z,95475.78
2022-11-17T21:24:35.114Z,95483.44
2022-11-17T21:26:38.153Z,95488.72
2022-11-17T21:28:41.112Z,95485.47
2022-11-17T21:30:44.042Z,95492.38
2022-11-17T21:32:48.199Z,95487.91
2022-11-17T21:34:51.111Z,95488.81
2022-11-17T21:36:54.339Z,95502.47
2022-11-17T21:38:57.862Z,95506.13
2022-11-17T21:41:02.910Z,95520.06
2022-11-17T21:43:05.598Z,95526.78
2022-11-17T21:45:09.656Z,95539.75
2022-11-17T21:47:12.333Z,95536.78
2022-11-17T21:49:16.492Z,95530.50
2022-11-17T21:51:21.322Z,95540.91
2022-11-17T21:53:23.977Z,95548.38
2022-11-17T21:55:26.636Z,95545.78
2022-11-17T21:57:29.791Z,95542.88
2022-11-17T21:59:32.660Z,95545.69
2022-11-17T22:01:35.964Z,95542.97
2022-11-17T22:03:39.410Z,95545.25
2022-11-17T22:05:43.537Z,95541.53
2022-11-17T22:07:46.141Z,95547.66
2022-11-17T22:09:48.856Z,95548.16
2022-11-17T22:11:51.976Z,95540.69
2022-11-17T22:13:57.239Z,95540.59
2022-11-17T22:16:04.871Z,95538.53
2022-11-17T22:18:07.604Z,95535.84
2022-11-17T22:20:11.097Z,95533.63
2022-11-17T22:22:15.122Z,95536.25
2022-11-17T22:24:17.893Z,95531.03
2022-11-17T22:26:20.545Z,95531.03
2022-11-17T22:28:23.949Z,95524.06
2022-11-17T22:30:26.576Z,95524.06
2022-11-17T22:32:29.218Z,95530.19
2022-11-17T22:34:31.953Z,95521.47
2022-11-17T22:36:34.641Z,95528.13
2022-11-17T22:38:38.921Z,95517.81
2022-11-17T22:40:42.378Z,95521.50
2022-11-17T22:42:45.100Z,95519.50
2022-11-17T22:44:47.733Z,95515.41
2022-11-17T22:46:50.433Z,95510.22
2022-11-17T22:48:53.349Z,95509.38
2022-11-17T22:50:58.823Z,95505.00
2022-11-17T22:53:02.144Z,95499.78
2022-11-17T22:55:06.758Z,95487.69
2022-11-17T22:57:09.725Z,95494.38
2022-11-17T22:59:12.378Z,95492.31
2022-11-17T23:01:14.946Z,95492.31
2022-11-17T23:03:17.602Z,95482.94
2022-11-17T23:05:20.373Z,95485.09
2022-11-17T23:07:23.150Z,95480.53
2022-11-17T23:09:25.776Z,95474.66
2022-11-17T23:11:37.057Z,95466.22
2022-11-17T23:13:43.677Z,95461.22
2022-11-17T23:15:46.361Z,95458.50
2022-11-17T23:17:49.747Z,95459.63
2022-11-17T23:19:54.138Z,95454.78
2022-11-17T23:21:56.777Z,95459.06
2022-11-17T23:23:59.452Z,95454.16
2022-11-17T23:26:03.282Z,95461.97
2022-11-17T23:28:07.578Z,95456.72
2022-11-17T23:30:11.265Z,95454.31
2022-11-17T23:32:13.835Z,95449.59
2022-11-17T23:34:16.477Z,95441.44
2022-11-17T23:36:20.507Z,95440.56
2022-11-17T23:38:23.083Z,95438.31
2022-11-17T23:40:25.900Z,95432.16
2022-11-17T23:42:32.251Z,95424.13
2022-11-17T23:44:36.690Z,95431.50
2022-11-17T23:46:39.331Z,95426.41
2022-11-17T23:48:42.542Z,95430.19
2022-11-17T23:50:45.176Z,95432.16
2022-11-17T23:52:47.791Z,95418.91
2022-11-17T23:54:50.457Z,95420.66
2022-11-17T23:56:53.208Z,95425.75
2022-11-17T23:58:55.819Z,95425.75
